KSQL/SQL METAR and TAF weather

Enter ICAO airport designator
Station Type Date Time Source
KSQL METAR 2020/01/18 23:55 UTC NOAA

KSQL 182355Z 36005KT 10SM SCT200 12/06 A3029


Station Type Date Time Source
KSQL Decoded METAR 2020/01/18 23:55 UTC NOAA

San Carlos Airport, CA, United States (KSQL) 37-31N 122-15W
Jan 18, 2020 - 06:55 PM EST / 2020.01.18 2355 UTC
Wind: from the N (360 degrees) at 6 MPH (5 KT):0
Visibility: 10 mile(s):0
Sky conditions: partly cloudy
Temperature: 53 F (12 C)
Dew Point: 42 F (6 C)
Relative Humidity: 66%
Pressure (altimeter): 30.29 in. Hg (1025 hPa)
ob: KSQL 182355Z 36005KT 10SM SCT200 12/06 A3029
cycle: 0

Station Type Date Time Source
KSQL TAF UTC NOAA

Error!

Example: see airport list